createdAt,value
2018-03-29T00:00:14.855Z,4.20
2018-03-29T00:02:42.522Z,4.10
2018-03-29T00:05:10.096Z,4.10
2018-03-29T00:07:37.731Z,4.10
2018-03-29T00:10:05.327Z,4.00
2018-03-29T00:12:32.956Z,4.10
2018-03-29T00:15:00.615Z,4.10
2018-03-29T00:17:28.295Z,4.10
2018-03-29T00:19:55.875Z,4.10
2018-03-29T00:22:23.474Z,4.20
2018-03-29T00:24:51.112Z,4.20
2018-03-29T00:27:18.703Z,4.20
2018-03-29T00:29:46.308Z,4.30
2018-03-29T00:32:14.673Z,4.50
2018-03-29T00:34:42.310Z,4.40
2018-03-29T00:37:09.916Z,4.50
2018-03-29T00:39:38.285Z,4.50
2018-03-29T00:42:06.651Z,4.50
2018-03-29T00:44:35.032Z,4.50
2018-03-29T00:47:03.361Z,4.50
2018-03-29T00:49:30.971Z,4.50
2018-03-29T00:51:58.619Z,4.50
2018-03-29T00:54:27.024Z,4.40
2018-03-29T00:56:54.591Z,4.40
2018-03-29T00:59:22.251Z,4.40
2018-03-29T01:01:50.606Z,4.50
2018-03-29T01:04:18.240Z,4.50
2018-03-29T01:06:45.813Z,4.60
2018-03-29T01:09:13.970Z,4.60
2018-03-29T01:11:41.657Z,4.70
2018-03-29T01:14:10.028Z,4.70
2018-03-29T01:16:37.646Z,4.70
2018-03-29T01:19:05.999Z,4.80
2018-03-29T01:21:33.822Z,4.70
2018-03-29T01:24:01.399Z,4.80
2018-03-29T01:26:29.083Z,4.70
2018-03-29T01:28:57.212Z,4.70
2018-03-29T01:31:24.860Z,4.70
2018-03-29T01:33:52.479Z,4.50
2018-03-29T01:36:20.095Z,4.50
2018-03-29T01:38:47.701Z,4.50
2018-03-29T01:41:15.311Z,4.60
2018-03-29T01:43:42.902Z,4.50
2018-03-29T01:46:10.508Z,4.50
2018-03-29T01:48:38.854Z,4.50
2018-03-29T01:51:06.462Z,4.50
2018-03-29T01:53:34.853Z,4.50
2018-03-29T01:56:02.577Z,4.50
2018-03-29T01:58:30.184Z,4.60
2018-03-29T02:00:57.850Z,4.60
2018-03-29T02:03:25.448Z,4.60
2018-03-29T02:05:53.098Z,4.70
2018-03-29T02:08:20.718Z,4.70
2018-03-29T02:10:48.339Z,4.80
2018-03-29T02:13:16.304Z,4.80
2018-03-29T02:15:44.006Z,4.70
2018-03-29T02:18:11.598Z,4.60
2018-03-29T02:20:39.608Z,4.70
2018-03-29T02:23:07.152Z,4.60
2018-03-29T02:25:34.764Z,4.70
2018-03-29T02:28:03.095Z,4.60
2018-03-29T02:30:30.724Z,4.60
2018-03-29T02:32:58.359Z,4.70
2018-03-29T02:35:27.226Z,4.60
2018-03-29T02:37:54.811Z,4.60
2018-03-29T02:40:22.454Z,4.60
2018-03-29T02:42:50.092Z,4.50
2018-03-29T02:45:17.714Z,4.50
2018-03-29T02:47:45.351Z,4.50
2018-03-29T02:50:13.723Z,4.50
2018-03-29T02:52:41.337Z,4.50
2018-03-29T02:55:08.998Z,4.50
2018-03-29T02:57:36.593Z,4.40
2018-03-29T03:00:04.243Z,4.40
2018-03-29T03:02:32.488Z,4.40
2018-03-29T03:05:00.078Z,4.40
2018-03-29T03:07:27.668Z,4.40
2018-03-29T03:09:56.049Z,4.40
2018-03-29T03:12:24.600Z,4.40
2018-03-29T03:14:52.220Z,4.50
2018-03-29T03:17:19.880Z,4.60
2018-03-29T03:19:47.492Z,4.50
2018-03-29T03:22:15.077Z,4.60
2018-03-29T03:24:42.689Z,4.60
2018-03-29T03:27:10.312Z,4.60
2018-03-29T03:29:38.739Z,4.50
2018-03-29T03:32:06.358Z,4.50
2018-03-29T03:34:33.970Z,4.60
2018-03-29T03:37:01.579Z,4.60
2018-03-29T03:39:29.982Z,4.50
2018-03-29T03:41:57.646Z,4.50
2018-03-29T03:44:25.279Z,4.60
2018-03-29T03:46:53.619Z,4.70
2018-03-29T03:49:21.211Z,4.70
2018-03-29T03:51:49.546Z,4.70
2018-03-29T03:54:17.230Z,4.70
2018-03-29T03:56:44.823Z,4.70
2018-03-29T03:59:12.434Z,4.70
2018-03-29T04:01:40.075Z,4.80
2018-03-29T04:04:07.699Z,4.80
2018-03-29T04:06:35.318Z,4.80
2018-03-29T04:09:02.988Z,4.80
2018-03-29T04:11:30.583Z,4.80
2018-03-29T04:13:58.198Z,4.80
2018-03-29T04:16:25.804Z,4.70
2018-03-29T04:18:54.213Z,4.70
2018-03-29T04:21:21.824Z,4.70
2018-03-29T04:23:49.463Z,4.70
2018-03-29T04:26:17.067Z,4.70
2018-03-29T04:28:45.474Z,4.70
2018-03-29T04:31:13.869Z,4.70
2018-03-29T04:33:41.558Z,4.70
2018-03-29T04:36:09.193Z,4.70
2018-03-29T04:38:36.802Z,4.70
2018-03-29T04:41:04.884Z,4.80
2018-03-29T04:43:33.258Z,4.80
2018-03-29T04:46:00.889Z,4.80
2018-03-29T04:48:28.929Z,4.80
2018-03-29T04:50:56.576Z,4.80
2018-03-29T04:53:24.212Z,4.70
2018-03-29T04:55:51.822Z,4.70
2018-03-29T04:58:19.445Z,4.80
2018-03-29T05:00:47.895Z,4.90
2018-03-29T05:03:15.567Z,4.90
2018-03-29T05:05:43.249Z,5.00
2018-03-29T05:08:11.621Z,5.10
2018-03-29T05:10:40.091Z,5.10
2018-03-29T05:13:08.427Z,5.10
2018-03-29T05:15:36.062Z,5.10
2018-03-29T05:18:03.690Z,5.10
2018-03-29T05:20:32.074Z,5.10
2018-03-29T05:22:59.840Z,5.10
2018-03-29T05:25:27.426Z,5.10
2018-03-29T05:27:56.776Z,5.20
2018-03-29T05:30:24.431Z,5.20
2018-03-29T05:32:52.027Z,5.20
2018-03-29T05:35:21.346Z,5.10
2018-03-29T05:37:48.936Z,5.10
2018-03-29T05:40:16.600Z,5.20
2018-03-29T05:42:44.185Z,5.20
2018-03-29T05:45:12.441Z,5.10
2018-03-29T05:47:40.042Z,5.10
2018-03-29T05:50:07.678Z,5.10
2018-03-29T05:52:36.224Z,5.10
2018-03-29T05:55:04.662Z,5.20
2018-03-29T05:57:32.576Z,5.20
2018-03-29T06:00:00.196Z,5.30
2018-03-29T06:02:28.360Z,5.30
2018-03-29T06:04:55.979Z,5.30
2018-03-29T06:07:23.633Z,5.40
2018-03-29T06:09:51.279Z,5.40
2018-03-29T06:12:19.018Z,5.40
2018-03-29T06:14:46.683Z,5.40
2018-03-29T06:17:20.799Z,5.50
2018-03-29T06:19:48.463Z,5.50
2018-03-29T06:22:23.843Z,5.50
2018-03-29T06:24:51.450Z,5.50
2018-03-29T06:27:19.071Z,5.50
2018-03-29T06:29:46.682Z,5.50
2018-03-29T06:32:14.431Z,5.50
2018-03-29T06:34:42.086Z,5.50
2018-03-29T06:37:09.902Z,5.60
2018-03-29T06:39:37.683Z,5.60
2018-03-29T06:42:05.684Z,5.70
2018-03-29T06:44:33.288Z,5.60
2018-03-29T06:47:01.118Z,5.60
2018-03-29T06:49:29.572Z,5.70
2018-03-29T06:51:57.251Z,5.80
2018-03-29T06:54:24.892Z,5.60
2018-03-29T06:56:52.534Z,5.70
2018-03-29T06:59:20.211Z,5.80
2018-03-29T07:01:47.874Z,5.80
2018-03-29T07:04:15.533Z,5.90
2018-03-29T07:06:43.106Z,5.80
2018-03-29T07:09:10.783Z,5.80
2018-03-29T07:11:38.372Z,5.80
2018-03-29T07:14:06.003Z,5.80
2018-03-29T07:16:33.713Z,5.80
2018-03-29T07:19:02.062Z,5.80
2018-03-29T07:21:30.946Z,5.90
2018-03-29T07:23:59.666Z,6.00
2018-03-29T07:26:28.043Z,6.00
2018-03-29T07:28:55.643Z,6.00
2018-03-29T07:31:23.319Z,6.20
2018-03-29T07:33:52.445Z,6.30
2018-03-29T07:36:24.533Z,6.40
2018-03-29T07:38:52.210Z,6.40
2018-03-29T07:41:19.848Z,6.40
2018-03-29T07:43:51.351Z,6.50
2018-03-29T07:46:23.095Z,6.50
2018-03-29T07:48:51.299Z,6.40
2018-03-29T07:51:20.057Z,6.50
2018-03-29T07:53:51.414Z,6.60
2018-03-29T07:56:19.050Z,6.70
2018-03-29T07:58:52.902Z,6.70
2018-03-29T08:01:20.562Z,6.80
2018-03-29T08:03:50.284Z,6.60
2018-03-29T08:06:19.041Z,6.70
2018-03-29T08:08:47.392Z,6.70
2018-03-29T08:11:15.103Z,6.80
2018-03-29T08:13:42.728Z,7.00
2018-03-29T08:16:10.320Z,7.10
2018-03-29T08:18:37.985Z,7.00
2018-03-29T08:21:05.657Z,6.90
2018-03-29T08:23:33.258Z,7.00
2018-03-29T08:26:00.910Z,7.00
2018-03-29T08:28:28.562Z,7.10
2018-03-29T08:30:56.219Z,7.30
2018-03-29T08:33:23.954Z,7.40
2018-03-29T08:35:51.582Z,7.50
2018-03-29T08:38:20.723Z,7.30
2018-03-29T08:40:48.404Z,7.30
2018-03-29T08:43:16.086Z,7.40
2018-03-29T08:45:43.719Z,7.40
2018-03-29T08:48:11.340Z,7.30
2018-03-29T08:50:38.989Z,7.30
2018-03-29T08:53:06.629Z,7.50
2018-03-29T08:55:34.302Z,7.50
2018-03-29T08:58:01.896Z,7.50
2018-03-29T09:00:29.506Z,7.50
2018-03-29T09:02:57.168Z,7.60
2018-03-29T09:05:24.779Z,7.60
2018-03-29T09:07:52.438Z,7.60
2018-03-29T09:10:20.036Z,7.50
2018-03-29T09:12:48.472Z,7.90
2018-03-29T09:15:16.129Z,8.00
2018-03-29T09:17:43.823Z,7.90
2018-03-29T09:20:11.534Z,8.00
2018-03-29T09:22:39.247Z,8.10
2018-03-29T09:25:06.844Z,8.00
2018-03-29T09:27:34.456Z,8.20
2018-03-29T09:30:02.073Z,8.30
2018-03-29T09:32:29.773Z,8.30
2018-03-29T09:34:57.356Z,8.40
2018-03-29T09:37:24.983Z,8.60
2018-03-29T09:39:53.386Z,8.50
2018-03-29T09:42:20.987Z,8.50
2018-03-29T09:44:48.697Z,8.40
2018-03-29T09:47:16.332Z,8.50
2018-03-29T09:49:43.928Z,8.30
2018-03-29T09:52:11.921Z,8.10
2018-03-29T09:54:39.539Z,8.30
2018-03-29T09:57:07.936Z,8.30
2018-03-29T09:59:35.558Z,8.30
2018-03-29T10:05:04.537Z,8.60
2018-03-29T10:07:34.139Z,8.80
2018-03-29T10:10:01.853Z,9.00
2018-03-29T10:12:29.452Z,9.00
2018-03-29T10:14:57.216Z,9.20
2018-03-29T10:17:24.933Z,9.10
2018-03-29T10:19:52.596Z,9.30
2018-03-29T10:22:21.016Z,9.30
2018-03-29T10:24:48.684Z,9.30
2018-03-29T10:27:16.334Z,8.70
2018-03-29T10:29:43.929Z,8.50
2018-03-29T10:32:11.575Z,8.80
2018-03-29T10:34:39.298Z,9.00
2018-03-29T10:37:07.695Z,9.30
2018-03-29T10:39:35.423Z,9.30
2018-03-29T10:42:03.084Z,9.10
2018-03-29T10:44:30.782Z,9.10
2018-03-29T10:46:58.392Z,9.00
2018-03-29T10:49:26.012Z,8.80
2018-03-29T10:51:53.633Z,8.70
2018-03-29T10:54:21.380Z,8.50
2018-03-29T10:56:49.488Z,8.60
2018-03-29T10:59:17.161Z,8.80
2018-03-29T11:01:45.572Z,8.80
2018-03-29T11:04:13.161Z,9.20
2018-03-29T11:06:41.413Z,9.40
2018-03-29T11:09:09.046Z,9.50
2018-03-29T11:11:36.713Z,9.60
2018-03-29T11:14:04.455Z,9.50
2018-03-29T11:16:32.054Z,9.60
2018-03-29T11:18:59.783Z,9.60
2018-03-29T11:21:27.446Z,9.60
2018-03-29T11:23:55.085Z,9.70
2018-03-29T11:26:22.752Z,9.70
2018-03-29T11:28:50.405Z,9.90
2018-03-29T11:31:18.087Z,9.90
2018-03-29T11:33:45.740Z,9.80
2018-03-29T11:36:13.368Z,9.80
2018-03-29T11:38:41.057Z,10.10
2018-03-29T11:41:09.507Z,10.10
2018-03-29T11:43:37.171Z,10.30
2018-03-29T11:46:04.763Z,10.10
2018-03-29T11:48:32.424Z,9.70
2018-03-29T11:51:00.198Z,9.50
2018-03-29T11:53:27.795Z,9.60
2018-03-29T11:55:55.447Z,9.60
2018-03-29T11:58:23.051Z,9.80
2018-03-29T12:00:50.714Z,10.20
2018-03-29T12:03:18.327Z,10.30
2018-03-29T12:05:45.946Z,10.30
2018-03-29T12:08:13.576Z,10.50
2018-03-29T12:10:41.206Z,10.50
2018-03-29T12:13:09.615Z,10.40
2018-03-29T12:15:37.202Z,10.40
2018-03-29T12:18:04.865Z,10.70
2018-03-29T12:20:32.518Z,10.90
2018-03-29T12:23:00.188Z,11.10
2018-03-29T12:25:27.866Z,11.30
2018-03-29T12:27:55.483Z,11.50
2018-03-29T12:30:23.086Z,11.60
2018-03-29T12:35:26.015Z,11.50
2018-03-29T12:37:54.442Z,11.50
2018-03-29T12:40:22.047Z,11.50
2018-03-29T12:42:50.467Z,11.40
2018-03-29T12:45:18.350Z,11.30
2018-03-29T12:47:45.965Z,11.50
2018-03-29T12:50:14.531Z,11.00
2018-03-29T12:52:42.093Z,10.90
2018-03-29T12:55:22.182Z,10.60
2018-03-29T12:58:01.578Z,10.40
2018-03-29T13:00:29.271Z,10.50
2018-03-29T13:02:56.863Z,10.60
2018-03-29T13:05:24.642Z,10.60
2018-03-29T13:07:52.263Z,10.50
2018-03-29T13:10:19.937Z,10.40
2018-03-29T13:12:48.045Z,10.10
2018-03-29T13:15:15.964Z,9.80
2018-03-29T13:17:43.665Z,9.10
2018-03-29T13:20:11.317Z,8.70
2018-03-29T13:22:39.732Z,8.70
2018-03-29T13:25:07.372Z,8.70
2018-03-29T13:27:35.333Z,8.80
2018-03-29T13:30:02.902Z,8.90
2018-03-29T13:32:30.478Z,8.90
2018-03-29T13:34:58.213Z,9.10
2018-03-29T13:37:25.952Z,9.10
2018-03-29T13:39:54.335Z,9.00
2018-03-29T13:42:21.938Z,9.00
2018-03-29T13:44:49.558Z,9.00
2018-03-29T13:47:17.247Z,8.70
2018-03-29T13:49:45.135Z,8.70
2018-03-29T13:52:12.782Z,8.60
2018-03-29T13:54:40.379Z,8.80
2018-03-29T13:57:08.036Z,8.70
2018-03-29T13:59:35.658Z,8.70
2018-03-29T14:02:03.328Z,8.80
2018-03-29T14:04:30.914Z,9.00
2018-03-29T14:06:58.614Z,8.80
2018-03-29T14:09:26.202Z,8.90
2018-03-29T14:11:53.807Z,8.90
2018-03-29T14:14:21.388Z,9.00
2018-03-29T14:16:49.828Z,9.00
2018-03-29T14:19:17.443Z,9.10
2018-03-29T14:21:45.035Z,9.20
2018-03-29T14:24:12.703Z,9.40
2018-03-29T14:26:40.295Z,9.40
2018-03-29T14:29:07.967Z,9.50
2018-03-29T14:31:36.440Z,9.60
2018-03-29T14:34:04.025Z,9.70
2018-03-29T14:36:32.147Z,10.00
2018-03-29T14:39:00.192Z,9.90
2018-03-29T14:41:27.871Z,9.70
2018-03-29T14:43:55.448Z,9.70
2018-03-29T14:46:23.875Z,9.70
2018-03-29T14:48:51.632Z,9.70
2018-03-29T14:51:19.330Z,9.70
2018-03-29T14:53:46.992Z,9.60
2018-03-29T14:56:14.622Z,9.50
2018-03-29T14:58:42.335Z,9.50
2018-03-29T15:01:10.331Z,9.40
2018-03-29T15:03:37.921Z,9.40
2018-03-29T15:06:05.630Z,9.20
2018-03-29T15:08:33.394Z,9.10
2018-03-29T15:11:01.208Z,8.80
2018-03-29T15:13:29.175Z,8.70
2018-03-29T15:15:56.829Z,8.80
2018-03-29T15:18:24.456Z,8.60
2018-03-29T15:20:52.158Z,8.50
2018-03-29T15:23:19.804Z,8.10
2018-03-29T15:25:47.474Z,8.10
2018-03-29T15:28:15.137Z,7.90
2018-03-29T15:30:43.576Z,7.80
2018-03-29T15:33:11.278Z,7.80
2018-03-29T15:35:39.686Z,8.00
2018-03-29T15:38:07.359Z,8.00
2018-03-29T15:40:35.204Z,8.00
2018-03-29T15:43:02.869Z,8.20
2018-03-29T15:45:30.505Z,8.40
2018-03-29T15:47:59.827Z,8.80
2018-03-29T15:50:27.425Z,8.80
2018-03-29T15:52:55.052Z,8.80
2018-03-29T15:55:22.690Z,8.80
2018-03-29T15:57:51.059Z,8.80
2018-03-29T16:00:18.767Z,8.80
2018-03-29T16:02:46.402Z,8.90
2018-03-29T16:05:14.839Z,8.70
2018-03-29T16:07:42.654Z,8.70
2018-03-29T16:10:10.208Z,8.70
2018-03-29T16:12:37.812Z,8.70
2018-03-29T16:15:05.413Z,8.60
2018-03-29T16:17:34.004Z,8.50
2018-03-29T16:20:02.376Z,8.70
2018-03-29T16:22:29.983Z,8.70
2018-03-29T16:24:57.606Z,8.70
2018-03-29T16:27:25.416Z,8.80
2018-03-29T16:29:53.170Z,8.90
2018-03-29T16:32:20.894Z,8.90
2018-03-29T16:34:50.261Z,8.90
2018-03-29T16:37:17.857Z,8.80
2018-03-29T16:39:46.455Z,8.80
2018-03-29T16:42:14.062Z,8.80
2018-03-29T16:44:42.666Z,8.70
2018-03-29T16:47:10.328Z,8.70
2018-03-29T16:49:38.190Z,8.50
2018-03-29T16:52:05.897Z,8.50
2018-03-29T16:54:33.527Z,8.40
2018-03-29T16:57:01.209Z,8.30
2018-03-29T16:59:29.580Z,8.30
2018-03-29T17:01:58.003Z,8.30
2018-03-29T17:04:25.779Z,8.30
2018-03-29T17:06:53.502Z,8.30
2018-03-29T17:09:21.477Z,8.30
2018-03-29T17:11:49.151Z,8.20
2018-03-29T17:14:16.845Z,8.20
2018-03-29T17:16:44.443Z,8.20
2018-03-29T17:19:12.851Z,8.20
2018-03-29T17:21:40.492Z,8.20
2018-03-29T17:24:08.077Z,8.20
2018-03-29T17:26:35.702Z,8.10
2018-03-29T17:29:04.078Z,8.10
2018-03-29T17:31:32.089Z,8.00
2018-03-29T17:33:59.719Z,8.00
2018-03-29T17:36:28.128Z,7.80
2018-03-29T17:38:55.808Z,7.80
2018-03-29T17:41:23.489Z,7.80
2018-03-29T17:43:51.323Z,7.70
2018-03-29T17:46:19.095Z,7.60
2018-03-29T17:48:46.860Z,7.60
2018-03-29T17:51:14.524Z,7.50
2018-03-29T17:53:42.174Z,7.50
2018-03-29T17:56:09.819Z,7.40
2018-03-29T17:58:37.476Z,7.30
2018-03-29T18:01:05.898Z,7.20
2018-03-29T18:03:33.653Z,7.10
2018-03-29T18:06:01.418Z,7.10
2018-03-29T18:08:29.611Z,7.00
2018-03-29T18:10:57.254Z,7.00
2018-03-29T18:13:24.961Z,7.00
2018-03-29T18:15:54.011Z,6.90
2018-03-29T18:18:21.831Z,6.80
2018-03-29T18:20:49.785Z,6.80
2018-03-29T18:23:26.991Z,6.80
2018-03-29T18:25:54.698Z,6.90
2018-03-29T18:28:22.508Z,6.70
2018-03-29T18:30:50.244Z,6.70
2018-03-29T18:33:17.938Z,6.70
2018-03-29T18:35:45.706Z,6.60
2018-03-29T18:38:14.333Z,6.50
2018-03-29T18:40:42.976Z,6.60
2018-03-29T18:43:10.783Z,6.60
2018-03-29T18:45:38.524Z,6.50
2018-03-29T18:48:06.263Z,6.50
2018-03-29T18:50:34.795Z,6.30
2018-03-29T18:53:02.618Z,6.30
2018-03-29T18:55:30.443Z,6.30
2018-03-29T18:58:05.186Z,6.30
2018-03-29T19:00:32.847Z,6.20
2018-03-29T19:03:00.503Z,6.20
2018-03-29T19:05:28.397Z,6.20
2018-03-29T19:07:57.010Z,6.10
2018-03-29T19:10:24.754Z,6.10
2018-03-29T19:12:54.256Z,6.00
2018-03-29T19:15:22.136Z,6.00
2018-03-29T19:17:50.304Z,5.90
2018-03-29T19:20:18.180Z,5.90
2018-03-29T19:22:46.858Z,5.80
2018-03-29T19:25:14.628Z,5.80
2018-03-29T19:27:42.848Z,5.80
2018-03-29T19:30:50.947Z,5.80
2018-03-29T19:33:18.795Z,5.80
2018-03-29T19:35:47.286Z,5.70
2018-03-29T19:38:15.067Z,5.70
2018-03-29T19:40:43.150Z,5.60
2018-03-29T19:43:11.063Z,5.60
2018-03-29T19:45:38.823Z,5.60
2018-03-29T19:48:06.491Z,5.50
2018-03-29T19:50:34.810Z,5.50
2018-03-29T19:53:02.448Z,5.50
2018-03-29T19:55:30.875Z,5.40
2018-03-29T19:57:58.533Z,5.40
2018-03-29T20:00:26.220Z,5.40
2018-03-29T20:02:53.907Z,5.30
2018-03-29T20:05:22.532Z,5.30
2018-03-29T20:07:50.421Z,5.30
2018-03-29T20:10:18.073Z,5.20
2018-03-29T20:12:46.037Z,5.20
2018-03-29T20:15:13.748Z,5.20
2018-03-29T20:17:41.462Z,5.10
2018-03-29T20:20:09.173Z,5.10
2018-03-29T20:22:36.993Z,5.10
2018-03-29T20:25:04.658Z,5.00
2018-03-29T20:27:32.403Z,5.00
2018-03-29T20:30:00.214Z,5.00
2018-03-29T20:32:28.627Z,4.90
2018-03-29T20:34:56.350Z,4.90
2018-03-29T20:37:24.015Z,4.80
2018-03-29T20:39:51.722Z,4.80
2018-03-29T20:42:19.546Z,4.70
2018-03-29T20:44:47.264Z,4.70
2018-03-29T20:47:15.940Z,4.70
2018-03-29T20:49:43.662Z,4.70
2018-03-29T20:52:11.263Z,4.70
2018-03-29T20:54:38.953Z,4.60
2018-03-29T20:57:06.857Z,4.60
2018-03-29T20:59:34.696Z,4.50
2018-03-29T21:02:02.431Z,4.50
2018-03-29T21:04:30.153Z,4.50
2018-03-29T21:06:57.853Z,4.50
2018-03-29T21:09:25.539Z,4.50
2018-03-29T21:11:53.488Z,4.40
2018-03-29T21:14:21.157Z,4.40
2018-03-29T21:16:48.888Z,4.40
2018-03-29T21:19:18.253Z,4.40
2018-03-29T21:21:45.905Z,4.30
2018-03-29T21:24:13.661Z,4.40
2018-03-29T21:26:41.499Z,4.40
2018-03-29T21:29:10.056Z,4.40
2018-03-29T21:31:38.587Z,4.40
2018-03-29T21:34:06.510Z,4.30
2018-03-29T21:36:34.178Z,4.30
2018-03-29T21:39:01.898Z,4.30
2018-03-29T21:41:29.620Z,4.30
2018-03-29T21:43:57.525Z,4.30
2018-03-29T21:46:25.209Z,4.20
2018-03-29T21:48:53.161Z,4.20
2018-03-29T21:51:20.824Z,4.20
2018-03-29T21:53:48.542Z,4.20
2018-03-29T21:56:16.258Z,4.20
2018-03-29T21:58:44.141Z,4.20
2018-03-29T22:01:11.766Z,4.20
2018-03-29T22:03:39.409Z,4.20
2018-03-29T22:06:07.079Z,4.20
2018-03-29T22:08:34.846Z,4.20
2018-03-29T22:11:03.000Z,4.20
2018-03-29T22:13:31.413Z,4.20
2018-03-29T22:15:59.129Z,4.20
2018-03-29T22:18:26.794Z,4.20
2018-03-29T22:20:54.415Z,4.20
2018-03-29T22:23:22.068Z,4.10
2018-03-29T22:25:50.486Z,4.10
2018-03-29T22:28:18.396Z,4.10
2018-03-29T22:30:46.262Z,4.10
2018-03-29T22:33:14.179Z,4.20
2018-03-29T22:35:41.854Z,4.30
2018-03-29T22:38:10.264Z,4.40
2018-03-29T22:40:37.877Z,4.40
2018-03-29T22:43:06.284Z,4.40
2018-03-29T22:45:34.707Z,4.40
2018-03-29T22:48:02.371Z,4.40
2018-03-29T22:50:29.980Z,4.30
2018-03-29T22:52:59.189Z,4.20
2018-03-29T22:55:27.548Z,4.10
2018-03-29T22:57:55.197Z,4.10
2018-03-29T23:00:40.693Z,4.10
2018-03-29T23:03:08.324Z,4.00
2018-03-29T23:05:35.993Z,4.00
2018-03-29T23:08:03.673Z,4.00
2018-03-29T23:10:31.534Z,4.00
2018-03-29T23:12:59.175Z,4.00
2018-03-29T23:15:26.854Z,3.90
2018-03-29T23:17:54.537Z,3.90
2018-03-29T23:20:22.184Z,4.00
2018-03-29T23:22:50.659Z,4.00
2018-03-29T23:25:18.313Z,4.00
2018-03-29T23:27:49.783Z,4.00
2018-03-29T23:30:18.420Z,4.10
2018-03-29T23:32:46.044Z,4.10
2018-03-29T23:35:13.664Z,4.10
2018-03-29T23:37:41.277Z,4.00
2018-03-29T23:40:09.665Z,4.10
2018-03-29T23:42:37.315Z,4.10
2018-03-29T23:45:05.682Z,4.00
2018-03-29T23:47:33.420Z,4.00
2018-03-29T23:50:01.050Z,4.00
2018-03-29T23:52:29.267Z,4.10
2018-03-29T23:54:56.891Z,4.10
2018-03-29T23:57:24.548Z,4.00
2018-03-29T23:59:52.267Z,4.00
